Time;durP1;ratioP1;P1;durP2;ratioP2;P2;SDS_P1;SDS_P2;PMS_P1;PMS_P2;Temp;Humidity;BMP_temperature;BMP_pressure;BME280_temperature;BME280_humidity;BME280_pressure;Samples;Min_cycle;Max_cycle;Signal;HPM_P1;HPM_P2
2023/01/23 00:02:15;;;;;;;8.63;6.60;;;3.70;99.90;;;;;;5033207;28;20210;-64
2023/01/23 00:04:42;;;;;;;8.57;7.17;;;3.70;99.90;;;;;;5033232;28;20214;-63
2023/01/23 00:07:09;;;;;;;8.40;6.77;;;3.80;99.90;;;;;;5033538;28;20210;-63
2023/01/23 00:09:35;;;;;;;7.77;6.60;;;3.70;99.90;;;;;;5033596;28;20226;-63
2023/01/23 00:12:04;;;;;;;7.70;6.00;;;3.60;99.90;;;;;;5033056;28;20214;-63
2023/01/23 00:14:31;;;;;;;8.47;6.80;;;3.50;99.90;;;;;;5033322;28;20210;-63
2023/01/23 00:16:58;;;;;;;8.03;6.70;;;3.60;99.90;;;;;;5033128;28;20210;-63
2023/01/23 00:19:24;;;;;;;8.07;6.90;;;3.60;99.90;;;;;;5032909;28;20206;-63
2023/01/23 00:21:51;;;;;;;8.20;6.43;;;3.50;99.90;;;;;;5032984;28;20205;-63
2023/01/23 00:24:18;;;;;;;7.37;6.57;;;3.50;99.90;;;;;;5033133;28;20202;-63
2023/01/23 00:26:44;;;;;;;9.97;7.00;;;3.40;99.90;;;;;;5032849;28;20233;-63
2023/01/23 00:29:14;;;;;;;8.23;6.73;;;3.40;99.90;;;;;;5032857;28;20206;-63
2023/01/23 00:31:41;;;;;;;8.03;6.50;;;3.40;99.90;;;;;;5032604;28;20643;-63
2023/01/23 00:34:11;;;;;;;7.50;6.47;;;3.50;99.90;;;;;;5033004;28;20267;-63
2023/01/23 00:36:39;;;;;;;9.50;6.50;;;3.60;99.90;;;;;;5033110;28;20260;-63
2023/01/23 00:39:08;;;;;;;8.93;6.67;;;3.70;99.90;;;;;;5032698;28;20671;-63
2023/01/23 00:41:35;;;;;;;9.83;7.03;;;3.80;99.90;;;;;;5032384;28;20358;-64
2023/01/23 00:44:02;;;;;;;8.07;6.70;;;3.80;99.90;;;;;;5032716;28;20268;-63
2023/01/23 00:46:30;;;;;;;7.87;6.20;;;3.80;99.90;;;;;;5032422;28;20206;-64
2023/01/23 00:48:57;;;;;;;8.10;6.67;;;4.00;99.90;;;;;;5032664;28;20210;-63
2023/01/23 00:51:24;;;;;;;8.73;6.93;;;4.10;99.90;;;;;;5032314;28;20234;-63
2023/01/23 00:53:50;;;;;;;9.07;6.83;;;4.20;99.90;;;;;;5032494;28;20630;-63
2023/01/23 00:56:17;;;;;;;7.33;6.43;;;4.20;99.90;;;;;;5033365;28;20646;-64
2023/01/23 00:58:44;;;;;;;9.33;7.00;;;4.20;99.90;;;;;;5033589;28;20631;-64
2023/01/23 01:01:11;;;;;;;8.47;6.93;;;4.20;99.90;;;;;;5033717;28;20640;-63
2023/01/23 01:03:39;;;;;;;8.40;6.70;;;4.30;99.90;;;;;;5032762;28;20623;-63
2023/01/23 01:06:06;;;;;;;12.60;7.10;;;4.20;99.90;;;;;;5032272;28;20214;-64
2023/01/23 01:08:33;;;;;;;8.43;6.40;;;4.10;99.90;;;;;;5032455;28;20202;-63
2023/01/23 01:10:59;;;;;;;7.73;6.77;;;4.00;99.90;;;;;;5032038;28;20226;-64
2023/01/23 01:13:27;;;;;;;8.00;6.67;;;4.10;99.90;;;;;;5031856;28;20617;-64
2023/01/23 01:15:54;;;;;;;7.37;6.40;;;4.10;99.90;;;;;;5032187;28;20213;-63
2023/01/23 01:18:22;;;;;;;7.97;6.60;;;4.20;99.90;;;;;;5032206;28;20206;-63
2023/01/23 01:20:51;;;;;;;8.03;7.03;;;4.20;99.90;;;;;;5031995;28;20218;-63
2023/01/23 01:23:18;;;;;;;8.23;6.87;;;4.30;99.90;;;;;;5031807;28;20213;-64
2023/01/23 01:25:45;;;;;;;8.00;7.10;;;4.30;99.90;;;;;;5031805;28;20258;-63
2023/01/23 01:28:12;;;;;;;8.97;7.57;;;4.20;99.90;;;;;;5031930;28;20209;-63
2023/01/23 01:30:40;;;;;;;8.73;7.10;;;4.20;99.90;;;;;;5032032;28;20237;-63
2023/01/23 01:33:07;;;;;;;9.03;7.70;;;4.20;99.90;;;;;;5031617;28;20206;-63
2023/01/23 01:35:34;;;;;;;8.87;7.47;;;4.10;99.90;;;;;;5031986;28;20272;-63
2023/01/23 01:38:02;;;;;;;9.10;7.40;;;4.10;99.90;;;;;;5031851;28;20575;-63
2023/01/23 01:40:33;;;;;;;10.03;8.27;;;4.10;99.90;;;;;;5031609;28;20226;-63
2023/01/23 01:43:02;;;;;;;10.53;8.50;;;4.10;99.90;;;;;;5031731;28;20214;-63
2023/01/23 01:46:05;;;;;;;8.97;7.70;;;4.10;99.90;;;;;;5031922;28;20202;-63
2023/01/23 01:48:36;;;;;;;9.90;7.87;;;4.10;99.90;;;;;;5031864;28;20300;-63
2023/01/23 01:51:08;;;;;;;9.50;7.90;;;4.10;99.90;;;;;;5056155;22;20647;-55
2023/01/23 01:53:37;;;;;;;9.37;8.03;;;4.10;99.90;;;;;;5031997;28;20225;-54
2023/01/23 01:56:05;;;;;;;8.90;7.73;;;4.00;99.90;;;;;;5031850;28;20229;-54
2023/01/23 01:58:32;;;;;;;9.80;8.27;;;3.90;99.90;;;;;;5032059;28;20233;-54
2023/01/23 02:00:59;;;;;;;10.03;8.63;;;3.80;99.90;;;;;;5032073;28;20249;-56
2023/01/23 02:03:26;;;;;;;10.10;8.43;;;3.70;99.90;;;;;;5031727;28;20736;-54
2023/01/23 02:05:53;;;;;;;10.43;8.60;;;3.60;99.90;;;;;;5031931;28;20214;-54
2023/01/23 02:08:24;;;;;;;12.87;9.03;;;3.50;99.90;;;;;;5032002;28;20205;-55
2023/01/23 02:10:53;;;;;;;10.63;8.57;;;3.60;99.90;;;;;;5031594;28;20261;-55
2023/01/23 02:13:23;;;;;;;10.23;8.47;;;3.60;99.90;;;;;;5031465;28;20585;-54
2023/01/23 02:15:50;;;;;;;10.47;8.50;;;3.60;99.90;;;;;;5031873;28;20210;-56
2023/01/23 02:18:18;;;;;;;8.83;7.63;;;3.60;99.90;;;;;;5033481;28;20675;-54
2023/01/23 02:20:46;;;;;;;9.50;8.20;;;3.50;99.90;;;;;;5035185;28;20275;-55
2023/01/23 02:23:21;;;;;;;10.33;8.77;;;3.40;99.90;;;;;;5036219;28;20213;-55
2023/01/23 02:26:00;;;;;;;11.47;8.93;;;3.40;99.90;;;;;;5036055;28;20208;-55
2023/01/23 02:28:37;;;;;;;10.23;8.33;;;3.50;99.90;;;;;;5036084;28;20202;-55
2023/01/23 02:31:05;;;;;;;11.37;8.60;;;3.40;99.90;;;;;;5035917;28;20658;-55
2023/01/23 02:33:47;;;;;;;10.33;8.40;;;3.40;99.90;;;;;;5035501;28;20586;-55
2023/01/23 02:36:14;;;;;;;10.67;8.43;;;3.40;99.90;;;;;;5035798;28;20716;-55
2023/01/23 02:38:49;;;;;;;10.03;8.43;;;3.50;99.90;;;;;;5035761;28;20567;-55
2023/01/23 02:41:20;;;;;;;11.83;9.10;;;3.50;99.90;;;;;;5035406;28;20595;-55
2023/01/23 02:43:48;;;;;;;10.13;8.60;;;3.70;99.90;;;;;;5035265;28;20210;-55
2023/01/23 02:46:17;;;;;;;9.10;7.87;;;3.70;99.90;;;;;;5035198;28;20229;-55
2023/01/23 02:48:44;;;;;;;10.80;8.83;;;3.70;99.90;;;;;;5035345;28;20206;-55
2023/01/23 02:51:11;;;;;;;11.67;9.30;;;3.60;99.90;;;;;;5035003;28;20604;-55
2023/01/23 02:53:38;;;;;;;10.33;8.57;;;3.60;99.90;;;;;;5034867;28;20216;-55
2023/01/23 02:56:05;;;;;;;10.80;9.13;;;3.60;99.90;;;;;;5035336;28;20225;-55
2023/01/23 03:01:18;;;;;;;11.13;8.90;;;3.60;99.90;;;;;;5035155;28;20225;-55
2023/01/23 03:03:45;;;;;;;10.43;8.07;;;3.50;99.90;;;;;;5034733;28;20311;-55
2023/01/23 03:06:12;;;;;;;10.87;8.80;;;3.50;99.90;;;;;;5034703;28;20202;-55
2023/01/23 03:08:47;;;;;;;9.93;8.83;;;3.50;99.90;;;;;;5034803;28;20256;-55
2023/01/23 03:11:15;;;;;;;10.20;8.70;;;3.50;99.90;;;;;;5034820;28;20240;-55
2023/01/23 03:13:43;;;;;;;10.03;8.50;;;3.50;99.90;;;;;;5034581;28;20257;-55
2023/01/23 03:16:10;;;;;;;11.63;8.83;;;3.50;99.90;;;;;;5034435;28;20659;-55
2023/01/23 03:18:37;;;;;;;11.07;9.13;;;3.60;99.90;;;;;;5034706;28;20210;-55
2023/01/23 03:21:05;;;;;;;10.37;8.87;;;3.60;99.90;;;;;;5035097;28;20218;-55
2023/01/23 03:23:32;;;;;;;9.83;8.37;;;3.40;99.90;;;;;;5034261;28;20210;-55
2023/01/23 03:25:59;;;;;;;11.33;9.23;;;3.30;99.90;;;;;;5034680;28;20213;-55
2023/01/23 03:31:13;;;;;;;11.07;8.70;;;3.30;99.90;;;;;;5034322;28;20696;-55
2023/01/23 03:33:42;;;;;;;10.83;8.33;;;3.40;99.90;;;;;;5034067;28;20195;-55
2023/01/23 03:36:09;;;;;;;10.67;8.90;;;3.50;99.90;;;;;;5034183;28;20208;-55
2023/01/23 03:38:36;;;;;;;11.10;9.03;;;3.40;99.90;;;;;;5034088;28;20217;-55
2023/01/23 03:43:48;;;;;;;10.93;8.60;;;3.50;99.90;;;;;;5033937;28;20224;-55
2023/01/23 03:46:16;;;;;;;10.87;8.77;;;3.60;99.90;;;;;;5033974;28;20222;-55
2023/01/23 03:48:43;;;;;;;12.93;8.20;;;3.70;99.90;;;;;;5034078;28;20217;-55
2023/01/23 03:51:09;;;;;;;12.27;9.27;;;3.70;99.90;;;;;;5033493;28;20233;-55
2023/01/23 03:53:37;;;;;;;9.80;8.70;;;3.80;99.90;;;;;;5033469;28;20703;-56
2023/01/23 03:56:05;;;;;;;11.17;9.07;;;3.90;99.90;;;;;;5033716;28;20290;-55
2023/01/23 03:58:32;;;;;;;12.43;8.73;;;4.00;99.90;;;;;;5033843;28;20234;-56
2023/01/23 04:01:02;;;;;;;9.90;8.73;;;4.00;99.90;;;;;;5033656;28;20241;-55
2023/01/23 04:03:30;;;;;;;14.23;9.07;;;4.00;99.90;;;;;;5033601;28;20301;-55
2023/01/23 04:05:58;;;;;;;9.67;8.50;;;4.10;99.90;;;;;;5033532;28;20211;-55
2023/01/23 04:08:25;;;;;;;11.03;9.30;;;4.10;99.90;;;;;;5033315;28;20692;-57
2023/01/23 04:10:52;;;;;;;9.97;8.77;;;4.20;99.90;;;;;;5033538;28;20238;-56
2023/01/23 04:13:19;;;;;;;10.63;8.60;;;4.20;99.90;;;;;;5033144;28;20744;-55
2023/01/23 04:15:45;;;;;;;13.37;10.40;;;4.20;99.90;;;;;;5033435;28;20202;-56
2023/01/23 04:18:12;;;;;;;11.53;9.90;;;4.20;99.90;;;;;;5033223;28;20212;-55
2023/01/23 04:20:40;;;;;;;11.80;9.20;;;4.10;99.90;;;;;;5033370;28;20237;-55
2023/01/23 04:23:07;;;;;;;11.60;9.33;;;4.00;99.90;;;;;;5033033;28;20662;-56
2023/01/23 04:25:34;;;;;;;11.43;8.77;;;4.00;99.90;;;;;;5033504;28;20210;-55
2023/01/23 04:28:01;;;;;;;12.70;9.63;;;4.00;99.90;;;;;;5032933;28;20717;-56
2023/01/23 04:30:28;;;;;;;13.93;10.00;;;3.90;99.90;;;;;;5032944;28;20810;-56
2023/01/23 04:32:55;;;;;;;10.67;9.10;;;3.90;99.90;;;;;;5033319;28;20723;-56
2023/01/23 04:35:21;;;;;;;12.60;10.03;;;3.80;99.90;;;;;;5032928;28;20210;-56
2023/01/23 04:37:50;;;;;;;12.33;10.33;;;3.80;99.90;;;;;;5032748;28;20202;-56
2023/01/23 04:40:17;;;;;;;11.90;9.87;;;3.70;99.90;;;;;;5032399;28;20623;-55
2023/01/23 04:42:44;;;;;;;11.33;9.60;;;3.70;99.90;;;;;;5032637;28;20198;-56
2023/01/23 04:45:11;;;;;;;12.57;9.47;;;3.80;99.90;;;;;;5032579;28;20213;-56
2023/01/23 04:47:38;;;;;;;13.63;10.63;;;3.80;99.90;;;;;;5032731;28;20244;-56
2023/01/23 04:50:05;;;;;;;12.00;9.33;;;3.80;99.90;;;;;;5032740;28;20244;-56
2023/01/23 04:52:32;;;;;;;12.40;9.73;;;3.80;99.90;;;;;;5032423;28;20234;-56
2023/01/23 04:55:01;;;;;;;12.17;9.63;;;3.90;99.90;;;;;;5032599;28;20210;-56
2023/01/23 04:57:27;;;;;;;13.60;9.37;;;3.80;99.90;;;;;;5032320;28;20202;-55
2023/01/23 04:59:54;;;;;;;13.00;9.73;;;3.90;99.90;;;;;;5032568;28;20206;-56
2023/01/23 05:02:21;;;;;;;12.63;9.77;;;3.80;99.90;;;;;;5032264;28;20202;-56
2023/01/23 05:04:48;;;;;;;13.93;9.80;;;3.80;99.90;;;;;;5032372;28;20222;-55
2023/01/23 05:07:15;;;;;;;12.10;9.30;;;3.80;99.90;;;;;;5032464;28;20241;-55
2023/01/23 05:09:43;;;;;;;13.80;9.33;;;3.80;99.90;;;;;;5032629;28;20211;-56
2023/01/23 05:12:11;;;;;;;11.80;9.37;;;3.70;99.90;;;;;;5032474;28;20228;-56
2023/01/23 05:14:37;;;;;;;11.33;8.87;;;3.90;99.90;;;;;;5032476;28;20214;-55
2023/01/23 05:17:04;;;;;;;13.13;9.67;;;3.80;99.90;;;;;;5032437;28;20210;-56
2023/01/23 05:19:31;;;;;;;11.07;8.63;;;3.70;99.90;;;;;;5032943;28;20210;-56
2023/01/23 05:21:58;;;;;;;13.17;8.67;;;3.70;99.90;;;;;;5031954;28;20233;-56
2023/01/23 05:24:25;;;;;;;17.23;9.37;;;3.70;99.90;;;;;;5032348;28;20229;-55
2023/01/23 05:26:52;;;;;;;13.20;8.93;;;3.70;99.90;;;;;;5032410;28;20289;-56
2023/01/23 05:29:20;;;;;;;12.17;9.17;;;3.60;99.90;;;;;;5032643;28;20202;-56
2023/01/23 05:31:47;;;;;;;11.73;8.73;;;3.60;99.90;;;;;;5032543;28;20317;-55
2023/01/23 05:34:14;;;;;;;13.53;9.27;;;3.60;99.90;;;;;;5032807;28;20205;-56
2023/01/23 05:36:41;;;;;;;12.43;9.57;;;3.60;99.90;;;;;;5032348;28;20210;-56
2023/01/23 05:39:07;;;;;;;12.23;9.07;;;3.70;99.90;;;;;;5032613;28;20214;-55
2023/01/23 05:41:34;;;;;;;13.03;9.47;;;3.70;99.90;;;;;;5032337;28;20292;-56
2023/01/23 05:44:01;;;;;;;13.33;9.67;;;3.60;99.90;;;;;;5032659;28;20678;-55
2023/01/23 05:46:29;;;;;;;12.60;9.03;;;3.60;99.90;;;;;;5032077;28;20213;-55
2023/01/23 05:48:56;;;;;;;11.87;9.00;;;3.60;99.90;;;;;;5032063;28;20248;-55
2023/01/23 05:51:30;;;;;;;13.47;9.70;;;3.50;99.90;;;;;;5032153;28;20234;-55
2023/01/23 05:53:57;;;;;;;12.03;9.47;;;3.90;99.90;;;;;;5035094;28;20712;-55
2023/01/23 05:56:24;;;;;;;14.53;9.17;;;3.50;99.90;;;;;;5036105;28;20217;-55
2023/01/23 05:58:50;;;;;;;13.90;9.03;;;3.50;99.90;;;;;;5036015;28;20209;-57
2023/01/23 06:01:18;;;;;;;13.50;9.37;;;3.50;99.90;;;;;;5036218;28;20226;-55
2023/01/23 06:03:46;;;;;;;13.73;9.87;;;3.30;99.90;;;;;;5036407;28;20264;-56
2023/01/23 06:06:14;;;;;;;13.63;10.07;;;3.30;99.90;;;;;;5035963;28;20576;-55
2023/01/23 06:08:41;;;;;;;14.87;10.27;;;3.20;99.90;;;;;;5036156;28;20206;-56
2023/01/23 06:11:07;;;;;;;13.17;9.77;;;3.10;99.90;;;;;;5035771;28;20230;-56
2023/01/23 06:13:34;;;;;;;11.37;9.13;;;3.10;99.90;;;;;;5036053;28;20209;-56
2023/01/23 06:16:02;;;;;;;13.70;9.67;;;2.70;99.90;;;;;;5036360;28;20206;-56
2023/01/23 06:18:28;;;;;;;14.10;9.77;;;3.00;99.90;;;;;;5035400;28;20213;-56
2023/01/23 06:21:01;;;;;;;16.17;9.57;;;3.00;99.90;;;;;;5035628;28;20321;-56
2023/01/23 06:23:28;;;;;;;13.73;9.97;;;3.00;99.90;;;;;;5035431;28;20210;-56
2023/01/23 06:26:00;;;;;;;14.20;9.83;;;3.00;99.90;;;;;;5035346;28;20206;-56
2023/01/23 06:28:27;;;;;;;14.43;10.00;;;3.00;99.90;;;;;;5035887;28;20218;-56
2023/01/23 06:30:54;;;;;;;14.87;10.13;;;3.10;99.90;;;;;;5035265;28;20234;-56
2023/01/23 06:33:21;;;;;;;13.27;10.07;;;3.20;99.90;;;;;;5035105;28;20776;-56
2023/01/23 06:35:47;;;;;;;13.40;10.07;;;3.20;99.90;;;;;;5035500;28;20233;-56
2023/01/23 06:38:16;;;;;;;12.83;10.07;;;3.30;99.90;;;;;;5035895;28;20198;-56
2023/01/23 06:40:44;;;;;;;15.63;11.00;;;3.30;99.90;;;;;;5035421;28;20724;-55
2023/01/23 06:43:11;;;;;;;13.40;9.87;;;3.30;99.90;;;;;;5035451;28;20213;-55
2023/01/23 06:45:38;;;;;;;12.80;9.67;;;3.40;99.90;;;;;;5035497;28;20689;-55
2023/01/23 06:48:05;;;;;;;17.23;10.80;;;3.40;99.90;;;;;;5035234;28;20214;-55
2023/01/23 06:50:32;;;;;;;14.20;10.43;;;3.40;99.90;;;;;;5034889;28;20240;-55
2023/01/23 06:52:59;;;;;;;14.03;10.70;;;3.40;99.90;;;;;;5034742;28;20233;-55
2023/01/23 06:55:27;;;;;;;13.27;10.00;;;3.40;99.90;;;;;;5035512;28;20245;-55
2023/01/23 06:57:54;;;;;;;15.87;11.07;;;3.40;99.90;;;;;;5035228;28;20200;-55
2023/01/23 07:00:21;;;;;;;15.43;11.40;;;3.40;99.90;;;;;;5035510;28;20233;-55
2023/01/23 07:02:48;;;;;;;14.17;10.07;;;3.40;99.90;;;;;;5035063;28;20206;-55
2023/01/23 07:05:15;;;;;;;15.43;10.90;;;3.50;99.90;;;;;;5034731;28;20198;-56
2023/01/23 07:07:42;;;;;;;13.43;9.77;;;3.50;99.90;;;;;;5034984;28;20230;-58
2023/01/23 07:10:10;;;;;;;13.97;10.53;;;3.50;99.90;;;;;;5034930;28;20226;-54
2023/01/23 07:12:39;;;;;;;14.10;9.90;;;3.50;99.90;;;;;;5034859;28;20459;-55
2023/01/23 07:15:07;;;;;;;15.53;10.70;;;3.40;99.90;;;;;;5034538;28;20210;-55
2023/01/23 07:17:34;;;;;;;14.70;10.37;;;3.40;99.90;;;;;;5034847;28;20206;-55
2023/01/23 07:20:01;;;;;;;14.33;10.43;;;3.40;99.90;;;;;;5034985;28;20264;-55
2023/01/23 07:22:27;;;;;;;14.20;10.37;;;3.50;99.90;;;;;;5034370;28;20213;-55
2023/01/23 07:24:54;;;;;;;15.07;10.57;;;3.50;99.90;;;;;;5034840;28;20293;-55
2023/01/23 07:27:21;;;;;;;15.83;11.07;;;3.50;99.90;;;;;;5034829;28;20246;-55
2023/01/23 07:29:50;;;;;;;15.97;10.87;;;3.50;99.90;;;;;;5034667;28;20210;-55
2023/01/23 07:32:17;;;;;;;13.27;9.67;;;3.50;99.90;;;;;;5034448;28;20657;-55
2023/01/23 07:34:44;;;;;;;14.10;10.47;;;3.50;99.90;;;;;;5034683;28;20202;-55
2023/01/23 07:37:10;;;;;;;15.17;10.37;;;3.40;99.90;;;;;;5034496;28;20202;-56
2023/01/23 07:39:37;;;;;;;13.90;10.50;;;3.40;99.90;;;;;;5034277;28;20692;-56
2023/01/23 07:42:04;;;;;;;14.53;10.07;;;3.20;99.90;;;;;;5034056;28;20239;-56
2023/01/23 07:44:31;;;;;;;15.70;11.50;;;3.20;99.90;;;;;;5034267;28;20352;-56
2023/01/23 07:46:59;;;;;;;16.57;12.50;;;3.10;99.90;;;;;;5034308;28;20217;-56
2023/01/23 07:49:26;;;;;;;16.80;11.53;;;3.10;99.90;;;;;;5034153;28;20214;-55
2023/01/23 07:51:53;;;;;;;16.80;11.47;;;3.20;99.90;;;;;;5034486;28;20317;-56
2023/01/23 07:54:20;;;;;;;15.53;10.70;;;3.20;99.90;;;;;;5033820;28;20198;-55
2023/01/23 07:56:49;;;;;;;14.87;11.23;;;3.20;99.90;;;;;;5034396;28;20213;-55
2023/01/23 07:59:16;;;;;;;15.33;10.63;;;3.20;99.90;;;;;;5033706;28;20689;-55
2023/01/23 08:01:43;;;;;;;14.97;10.47;;;3.20;99.90;;;;;;5033628;28;20237;-55
2023/01/23 08:04:11;;;;;;;14.20;10.33;;;3.30;99.90;;;;;;5033892;28;20198;-56
2023/01/23 08:06:38;;;;;;;15.13;10.40;;;3.30;99.90;;;;;;5034044;28;20222;-55
2023/01/23 08:09:05;;;;;;;14.57;10.70;;;3.40;99.90;;;;;;5034032;28;20214;-55
2023/01/23 08:11:32;;;;;;;14.07;9.90;;;3.40;99.90;;;;;;5033627;28;20241;-55
2023/01/23 08:13:59;;;;;;;15.20;10.47;;;3.50;99.90;;;;;;5033492;28;20309;-55
2023/01/23 08:16:26;;;;;;;14.33;9.83;;;3.50;99.90;;;;;;5033059;28;20614;-55
2023/01/23 08:18:53;;;;;;;15.90;10.50;;;3.40;99.90;;;;;;5033624;28;20236;-55
2023/01/23 08:21:22;;;;;;;15.40;10.17;;;3.40;99.90;;;;;;5033465;28;20226;-55
2023/01/23 08:23:48;;;;;;;13.80;10.23;;;3.40;99.90;;;;;;5033162;28;20750;-55
2023/01/23 08:26:17;;;;;;;13.53;9.43;;;3.50;99.90;;;;;;5033646;28;20206;-55
2023/01/23 08:28:45;;;;;;;14.33;9.13;;;3.40;99.90;;;;;;5033483;28;20674;-55
2023/01/23 08:31:13;;;;;;;14.17;9.60;;;3.40;99.90;;;;;;5033211;28;20697;-57
2023/01/23 08:33:40;;;;;;;11.87;8.47;;;3.40;99.90;;;;;;5034173;28;20269;-56
2023/01/23 08:36:08;;;;;;;13.13;9.30;;;3.40;99.90;;;;;;5033913;28;20206;-56
2023/01/23 08:38:37;;;;;;;13.03;8.70;;;3.40;99.90;;;;;;5033353;28;20233;-56
2023/01/23 08:41:05;;;;;;;13.33;8.37;;;3.40;99.90;;;;;;5033521;28;20256;-56
2023/01/23 08:43:33;;;;;;;10.60;7.80;;;3.40;99.90;;;;;;5033221;28;20210;-56
2023/01/23 08:46:00;;;;;;;11.63;8.10;;;3.40;99.90;;;;;;5033896;28;20202;-57
2023/01/23 08:48:28;;;;;;;11.60;8.03;;;3.40;99.90;;;;;;5033497;28;20241;-55
2023/01/23 08:51:00;;;;;;;11.57;8.07;;;3.30;99.90;;;;;;5033181;28;20300;-55
2023/01/23 08:53:26;;;;;;;10.80;7.23;;;3.40;99.90;;;;;;5032894;28;20299;-55
2023/01/23 08:55:59;;;;;;;10.47;7.47;;;3.50;99.90;;;;;;5033542;28;20214;-55
2023/01/23 08:58:26;;;;;;;11.53;8.20;;;3.50;99.90;;;;;;5034025;28;20212;-55
2023/01/23 09:00:53;;;;;;;11.03;7.47;;;3.60;99.90;;;;;;5034570;28;20229;-55
2023/01/23 09:03:19;;;;;;;10.07;7.33;;;3.80;99.90;;;;;;5034548;28;20209;-55
2023/01/23 09:05:46;;;;;;;10.13;7.40;;;3.80;99.90;;;;;;5033852;28;20578;-55
2023/01/23 09:08:13;;;;;;;10.70;7.30;;;3.90;99.90;;;;;;5034061;28;20210;-55
2023/01/23 09:10:40;;;;;;;10.47;7.60;;;3.80;99.90;;;;;;5034495;28;20828;-55
2023/01/23 09:13:08;;;;;;;9.63;7.13;;;3.90;99.90;;;;;;5034188;28;20253;-55
2023/01/23 09:15:38;;;;;;;10.17;7.63;;;4.00;99.90;;;;;;5033611;28;20202;-55
2023/01/23 09:18:04;;;;;;;9.20;6.80;;;3.90;99.90;;;;;;5034767;28;20202;-56
2023/01/23 09:20:31;;;;;;;11.00;7.50;;;3.90;99.90;;;;;;5034505;28;20234;-56
2023/01/23 09:22:58;;;;;;;10.60;7.70;;;3.90;99.90;;;;;;5034298;28;20210;-56
2023/01/23 09:25:25;;;;;;;9.80;7.23;;;4.00;99.90;;;;;;5035123;28;20202;-56
2023/01/23 09:27:52;;;;;;;11.93;8.00;;;4.00;99.90;;;;;;5034123;28;20206;-55
2023/01/23 09:30:20;;;;;;;10.00;7.07;;;4.00;99.90;;;;;;5034521;28;20226;-56
2023/01/23 09:32:47;;;;;;;11.17;7.67;;;4.00;99.90;;;;;;5034358;28;20233;-56
2023/01/23 09:35:14;;;;;;;10.47;7.67;;;4.10;99.90;;;;;;5034622;28;20293;-56
2023/01/23 09:37:59;;;;;;;9.80;6.93;;;4.10;99.90;;;;;;5034856;28;20210;-57
2023/01/23 09:40:30;;;;;;;8.60;6.87;;;4.00;99.90;;;;;;5034071;28;20344;-55
2023/01/23 09:43:01;;;;;;;10.00;7.30;;;3.80;99.90;;;;;;5034322;28;20206;-55
2023/01/23 09:45:31;;;;;;;9.30;6.97;;;3.80;99.90;;;;;;5034839;28;20576;-57
2023/01/23 09:48:14;;;;;;;9.87;7.30;;;3.80;99.90;;;;;;5033847;28;20214;-55
2023/01/23 09:50:56;;;;;;;8.97;6.83;;;3.80;99.90;;;;;;5033352;28;20230;-55
2023/01/23 09:53:26;;;;;;;10.23;7.13;;;3.70;99.90;;;;;;5033160;28;20705;-54
2023/01/23 09:55:59;;;;;;;10.83;7.33;;;3.70;99.90;;;;;;5033688;28;20661;-56
2023/01/23 09:58:31;;;;;;;9.93;7.63;;;3.70;99.90;;;;;;5033431;28;20217;-57
2023/01/23 10:00:59;;;;;;;9.67;7.40;;;3.80;99.90;;;;;;5032225;28;20237;-55
2023/01/23 10:03:29;;;;;;;9.90;7.30;;;3.80;99.90;;;;;;5031599;28;20206;-57
2023/01/23 10:06:04;;;;;;;10.43;7.30;;;3.90;99.90;;;;;;5032291;28;20217;-57
2023/01/23 10:08:37;;;;;;;10.80;7.90;;;4.00;99.90;;;;;;5032536;28;20220;-57
2023/01/23 10:11:12;;;;;;;11.17;7.40;;;4.10;99.90;;;;;;5032105;28;20234;-57
2023/01/23 10:13:54;;;;;;;9.73;7.10;;;4.20;99.90;;;;;;5031827;28;20606;-56
2023/01/23 10:16:51;;;;;;;12.70;7.73;;;4.40;99.90;;;;;;5032429;28;20706;-56
2023/01/23 10:19:35;;;;;;;10.83;7.30;;;4.30;99.90;;;;;;5032048;28;20217;-54
2023/01/23 10:22:10;;;;;;;10.97;7.43;;;4.50;99.90;;;;;;5032071;28;20645;-54
2023/01/23 10:24:47;;;;;;;11.50;7.40;;;4.70;99.90;;;;;;5032059;28;20202;-54
2023/01/23 10:27:19;;;;;;;11.00;7.33;;;4.90;99.90;;;;;;5032096;28;20263;-55
2023/01/23 10:29:50;;;;;;;10.40;7.30;;;5.00;99.90;;;;;;5031586;28;20213;-54
2023/01/23 10:32:25;;;;;;;9.73;7.37;;;5.10;99.90;;;;;;5032388;28;20280;-55
2023/01/23 10:34:59;;;;;;;10.97;7.53;;;5.10;99.90;;;;;;5032562;28;20202;-55
2023/01/23 10:37:42;;;;;;;11.13;7.77;;;5.10;99.90;;;;;;5031722;28;20206;-56
2023/01/23 10:40:13;;;;;;;11.50;8.53;;;5.30;99.90;;;;;;5034917;28;20226;-55
2023/01/23 10:42:40;;;;;;;12.10;8.20;;;5.40;99.90;;;;;;5035878;28;20297;-55
2023/01/23 10:45:16;;;;;;;10.80;8.00;;;5.40;99.90;;;;;;5035564;28;20217;-56
2023/01/23 10:47:46;;;;;;;10.10;7.20;;;5.30;99.90;;;;;;5035288;28;20696;-56
2023/01/23 10:50:13;;;;;;;9.67;7.13;;;5.30;99.90;;;;;;5035833;28;20329;-56
2023/01/23 10:52:42;;;;;;;11.53;7.77;;;5.20;99.90;;;;;;5035327;28;20602;-55
2023/01/23 10:55:28;;;;;;;11.90;8.60;;;5.00;99.90;;;;;;5036417;28;20285;-56
2023/01/23 10:57:58;;;;;;;11.20;7.97;;;4.90;99.90;;;;;;5035676;28;20213;-56
2023/01/23 11:00:30;;;;;;;10.33;7.70;;;4.80;99.90;;;;;;5035990;28;20237;-56
2023/01/23 11:03:24;;;;;;;11.30;8.23;;;4.70;99.90;;;;;;5035907;28;20202;-56
2023/01/23 11:05:53;;;;;;;11.27;8.20;;;4.70;99.90;;;;;;5035864;28;20211;-60
2023/01/23 11:08:26;;;;;;;10.37;7.70;;;4.70;99.90;;;;;;5035720;28;20728;-57
2023/01/23 11:10:53;;;;;;;12.53;8.07;;;4.90;99.90;;;;;;5035977;28;20233;-55
2023/01/23 11:13:28;;;;;;;10.10;7.20;;;5.00;99.90;;;;;;5035439;28;20226;-55
2023/01/23 11:15:55;;;;;;;11.80;8.70;;;5.10;99.90;;;;;;5035842;28;20210;-55
2023/01/23 11:18:34;;;;;;;11.77;8.50;;;5.20;99.90;;;;;;5035750;28;20209;-55
2023/01/23 11:21:02;;;;;;;13.33;8.47;;;5.40;99.90;;;;;;5036080;28;20258;-56
2023/01/23 11:23:34;;;;;;;11.10;7.87;;;5.50;99.90;;;;;;5035359;28;20571;-55
2023/01/23 11:26:02;;;;;;;11.80;8.50;;;5.40;99.90;;;;;;5035624;28;20237;-55
2023/01/23 11:28:33;;;;;;;12.03;8.83;;;5.50;99.90;;;;;;5034792;28;20556;-55
2023/01/23 11:31:05;;;;;;;15.50;8.10;;;5.50;99.90;;;;;;5035068;28;20246;-56
2023/01/23 11:33:43;;;;;;;17.13;8.97;;;5.50;99.90;;;;;;5034729;28;20226;-56
2023/01/23 11:36:29;;;;;;;11.40;8.33;;;5.30;99.90;;;;;;5034771;28;20817;-56
2023/01/23 11:39:01;;;;;;;11.60;8.37;;;5.30;99.90;;;;;;5035140;28;20632;-56
2023/01/23 11:41:30;;;;;;;12.97;8.87;;;5.50;99.90;;;;;;5035025;28;20230;-58
2023/01/23 11:43:57;;;;;;;12.23;8.33;;;5.50;99.90;;;;;;5034230;28;20206;-55
2023/01/23 11:46:41;;;;;;;13.97;8.70;;;5.60;99.90;;;;;;5034924;28;20218;-55
2023/01/23 11:49:29;;;;;;;14.83;9.50;;;5.60;99.90;;;;;;5034737;28;20224;-57
2023/01/23 11:52:11;;;;;;;10.87;7.57;;;5.70;99.90;;;;;;5033222;28;20233;-55
2023/01/23 11:55:00;;;;;;;12.20;8.77;;;5.70;99.90;;;;;;5033944;28;20226;-55
2023/01/23 11:57:39;;;;;;;11.93;8.83;;;5.70;99.90;;;;;;5034130;28;20214;-58
2023/01/23 12:00:20;;;;;;;10.97;7.70;;;5.60;99.90;;;;;;5034328;28;20238;-56
2023/01/23 12:03:10;;;;;;;11.70;8.53;;;5.60;99.90;;;;;;5033834;28;20243;-54
2023/01/23 12:06:17;;;;;;;13.27;8.77;;;5.50;99.90;;;;;;5033614;28;20206;-54
2023/01/23 12:08:54;;;;;;;11.70;8.10;;;5.50;99.90;;;;;;5034180;28;20293;-54
2023/01/23 12:11:23;;;;;;;12.20;8.67;;;5.50;99.90;;;;;;5033746;28;20587;-56
2023/01/23 12:13:59;;;;;;;13.63;9.07;;;5.60;99.90;;;;;;5033143;28;20249;-54
2023/01/23 12:16:36;;;;;;;12.37;8.77;;;5.60;99.90;;;;;;5033874;28;20217;-55
2023/01/23 12:19:15;;;;;;;10.37;8.10;;;5.60;99.90;;;;;;5033922;28;20221;-55
2023/01/23 12:21:53;;;;;;;12.30;8.60;;;5.60;99.90;;;;;;5033574;28;20233;-54
2023/01/23 12:24:36;;;;;;;11.23;7.77;;;5.50;99.90;;;;;;5033131;28;20234;-54
2023/01/23 12:27:14;;;;;;;10.55;8.10;;;5.70;99.90;;;;;;5031443;28;20441;-54
2023/01/23 12:30:11;;;;;;;9.63;7.47;;;5.70;99.90;;;;;;5029798;28;20210;-55
2023/01/23 12:32:56;;;;;;;11.10;7.47;;;5.60;99.90;;;;;;5031837;28;20206;-54
2023/01/23 12:35:42;;;;;;;13.13;7.83;;;5.70;99.90;;;;;;5032345;28;20728;-54
2023/01/23 12:38:23;;;;;;;11.10;8.30;;;5.90;99.90;;;;;;5032390;28;20205;-54
2023/01/23 12:40:58;;;;;;;10.40;7.23;;;5.90;99.90;;;;;;5032301;28;20642;-54
2023/01/23 12:43:36;;;;;;;11.30;7.93;;;5.90;99.90;;;;;;5032371;28;20205;-54
2023/01/23 12:46:08;;;;;;;10.27;7.53;;;5.70;99.90;;;;;;5032462;28;20213;-55
2023/01/23 12:48:42;;;;;;;11.13;7.67;;;5.40;99.90;;;;;;5032357;28;20206;-54
2023/01/23 12:51:14;;;;;;;9.27;7.23;;;5.40;99.90;;;;;;5032492;28;20268;-54
2023/01/23 12:53:45;;;;;;;10.33;7.47;;;5.30;99.90;;;;;;5032022;28;20639;-56
2023/01/23 12:56:21;;;;;;;10.77;7.73;;;5.20;99.90;;;;;;5032479;28;20570;-54
2023/01/23 12:58:53;;;;;;;12.63;8.37;;;5.20;99.90;;;;;;5031882;28;20268;-54
2023/01/23 13:01:40;;;;;;;9.87;7.27;;;5.30;99.90;;;;;;5031467;28;20242;-54
2023/01/23 13:04:19;;;;;;;11.53;8.10;;;5.40;99.90;;;;;;5032059;28;20563;-54
2023/01/23 13:07:07;;;;;;;10.70;7.67;;;5.40;99.90;;;;;;5032613;28;20236;-57
2023/01/23 13:09:46;;;;;;;12.63;8.70;;;5.40;99.90;;;;;;5030173;28;20221;-59
2023/01/23 13:12:20;;;;;;;10.47;7.70;;;5.40;99.90;;;;;;5031976;28;20198;-59